Latest Weather Observations for Stawell

IDV60801

Issued at 10:31 pm EST Sunday 2 August 2015 (issued every 30 minutes, with the page automatically refreshed every 10 minutes)

About weather observations | Map of weather stations | Latest weather observations for VIC | Other Formats
Station Details ID: 079105 Name: STAWELL AERODROME Lat: -37.07 Lon: 142.74 Height: 235.36 m
Data from the previous 72 hours. | See also: Recent months at Stawell
Date/Time
EST
Temp
°C
App
Temp
°C
Dew
Point
Rel
Hum
%
Delta-T
°C
Wind Press
QNH
hPa
Press
MSL
hPa
Rain
since 9 am
mm
Dir
 
Spd
km/h
Gust
km/h
Spd
kts
Gust
kts
02/10:30pm 8.8 3.8 3.6 70 2.3 W 19 32 10 17 1014.1 - 0.4
02/10:00pm 8.4 3.5 5.0 79 1.5 W 20 35 11 19 1013.9 - 0.4
02/09:30pm 8.7 3.8 4.3 74 2.0 W 19 32 10 17 1013.9 - 0.4
02/09:00pm 9.0 3.8 3.8 70 2.3 W 20 32 11 17 1013.7 1014.8 0.4
02/08:30pm 9.0 3.8 3.4 68 2.4 W 20 35 11 19 1013.6 - 0.4
02/08:00pm 9.3 4.1 3.3 66 2.6 W 20 43 11 23 1013.5 - 0.4
02/07:30pm 9.0 3.9 4.2 72 2.1 W 20 33 11 18 1013.4 - 0.4
02/07:00pm 9.6 3.8 4.4 70 2.3 W 24 46 13 25 1013.1 - 0.4
02/06:30pm 10.0 5.4 5.4 73 2.1 W 19 33 10 18 1012.3 - 0.4
02/06:00pm 10.0 5.3 6.2 77 1.8 WNW 20 33 11 18 1011.9 1013.1 0.4
02/05:30pm 9.9 4.2 6.8 81 1.5 WNW 26 39 14 21 1011.5 - 0.4
02/05:00pm 9.9 5.4 6.8 81 1.5 W 20 33 11 18 1011.6 - 0.2
02/04:30pm 11.0 5.5 5.7 70 2.5 WNW 24 39 13 21 1011.2 - 0.0
02/04:00pm 11.7 6.0 4.7 62 3.2 WNW 24 44 13 24 1010.8 - 0.0
02/03:30pm 11.5 6.7 4.5 62 3.2 W 19 32 10 17 1011.0 - 0.0
02/03:00pm 11.1 5.9 5.4 68 2.7 W 22 35 12 19 1010.7 1011.8 0.0
02/02:40pm 11.3 5.0 5.6 68 2.7 WNW 28 46 15 25 1010.5 - 0.0
02/02:30pm 11.2 6.0 7.1 76 2.0 WNW 24 35 13 19 1010.5 - 0.0
02/02:00pm 10.5 4.3 6.1 74 2.1 WNW 28 41 15 22 1011.0 - 0.0
02/01:30pm 11.1 4.7 5.0 66 2.8 WNW 28 43 15 23 1010.9 - 0.0
02/01:06pm 11.0 4.5 4.7 65 2.9 W 28 48 15 26 1011.2 - 0.0
02/01:00pm 11.2 5.0 4.4 63 3.1 W 26 48 14 26 1011.4 - 0.0
02/12:30pm 11.0 4.4 4.2 63 3.1 W 28 50 15 27 1011.8 - 0.0
02/12:00pm 10.2 4.8 4.4 67 2.6 WNW 22 35 12 19 1012.4 1013.6 0.0
02/11:30am 8.8 4.4 4.8 76 1.8 NW 17 30 9 16 1012.9 - 0.0
02/11:00am 8.4 4.0 5.0 79 1.5 NNW 17 28 9 15 1013.1 - 0.0
02/10:30am 7.7 3.3 4.8 82 1.3 NNW 17 33 9 18 1013.4 - 0.0
02/10:00am 8.2 2.8 4.6 78 1.6 WNW 22 28 12 15 1013.5 - 0.0
02/09:30am 7.4 2.6 4.4 81 1.3 WNW 19 28 10 15 1013.4 - 0.0
02/09:00am 6.4 3.5 4.4 87 0.9 W 9 17 5 9 1013.4 1014.5 0.0
02/08:30am 5.4 1.2 3.9 90 0.6 NNE 15 19 8 10 1013.4 - 0.0
02/08:00am 6.1 3.4 3.8 85 1.0 N 7 15 4 8 1013.3 - 0.0
02/07:30am 6.0 2.5 3.7 85 1.0 NNW 11 17 6 9 1013.4 - 0.0
02/07:00am 5.7 2.2 3.4 85 1.0 N 11 17 6 9 1013.4 - 0.0
02/06:30am 5.8 1.5 3.5 85 1.0 NW 15 22 8 12 1013.3 - 0.0
02/06:00am 5.8 1.8 3.1 83 1.1 WNW 13 19 7 10 1013.3 1014.4 0.0
02/05:30am 5.6 2.8 3.4 86 0.9 NW 7 13 4 7 1013.4 - 0.0
02/05:00am 5.7 1.8 3.5 86 0.9 NNW 13 17 7 9 1013.5 - 0.0
02/04:30am 5.5 2.4 3.5 87 0.8 NW 9 17 5 9 1013.5 - 0.0
02/04:00am 5.3 2.5 3.3 87 0.8 N 7 9 4 5 1013.5 - 0.0
02/03:30am 5.0 3.6 3.3 89 0.7 CALM 0 6 0 3 1013.9 - 0.0
02/03:00am 5.4 3.6 3.6 88 0.8 NNW 2 7 1 4 1014.2 1015.3 0.0
02/02:30am 5.4 3.2 3.3 86 0.9 NNW 4 6 2 3 1014.2 - 0.0
02/02:00am 5.5 2.9 3.3 86 0.9 N 6 7 3 4 1014.5 - 0.0
02/01:30am 5.6 2.9 3.9 89 0.7 N 7 9 4 5 1014.7 - 0.0
02/01:00am 5.6 4.4 4.4 92 0.5 CALM 0 0 0 0 1014.9 - 0.0
02/12:30am 5.4 4.1 4.2 92 0.5 CALM 0 0 0 0 1015.0 - 0.0
02/12:00am 6.0 4.8 4.5 90 0.7 CALM 0 0 0 0 1015.0 1016.1 0.0
 
Date/Time
EST
Temp
°C
App
Temp
°C
Dew
Point
Rel
Hum
%
Delta-T
°C
Wind Press
QNH
hPa
Press
MSL
hPa
Rain
since 9 am
mm
Dir
 
Spd
km/h
Gust
km/h
Spd
kts
Gust
kts
01/11:30pm 5.7 4.4 4.2 90 0.6 CALM 0 7 0 4 1015.0 - 0.0
01/11:00pm 5.9 4.7 4.5 91 0.6 CALM 0 9 0 5 1015.6 - 0.0
01/10:30pm 5.7 3.6 4.0 89 0.7 ESE 4 6 2 3 1015.8 - 0.0
01/10:00pm 5.8 3.4 4.3 90 0.6 ESE 6 6 3 3 1014.9 - 0.0
01/09:30pm 6.1 4.9 4.4 89 0.7 CALM 0 0 0 0 1015.6 - 0.0
01/09:00pm 6.1 3.6 3.9 86 0.9 WNW 6 7 3 4 1015.4 1016.6 0.0
01/08:30pm 6.2 4.1 3.9 85 1.0 WNW 4 7 2 4 1015.9 - 0.0
01/08:00pm 6.0 4.3 4.2 88 0.8 NW 2 9 1 5 1015.8 - 0.0
01/07:30pm 6.5 4.4 4.0 84 1.1 NW 4 6 2 3 1015.0 - 0.0
01/07:00pm 6.8 5.5 3.9 82 1.3 CALM 0 0 0 0 1014.6 - 0.0
01/06:30pm 7.1 5.8 4.2 82 1.3 CALM 0 0 0 0 1014.4 - 0.0
01/06:00pm 7.8 5.3 3.5 74 1.9 NW 6 6 3 3 1014.3 1015.4 0.0
01/05:30pm 8.1 6.7 3.6 73 2.0 CALM 0 0 0 0 1014.7 - 0.0
01/05:00pm 8.6 5.7 1.3 60 3.0 WSW 6 7 3 4 1014.8 - 0.0
01/04:30pm 8.9 5.8 0.4 55 3.5 WSW 6 9 3 5 1014.3 - 0.0
01/04:00pm 9.2 7.4 1.1 57 3.4 CALM 0 6 0 3 1014.1 - 0.0
01/03:30pm 9.3 7.2 1.9 60 3.1 W 2 9 1 5 1014.0 - 0.0
01/03:00pm 9.2 6.0 0.6 55 3.5 SSW 7 11 4 6 1013.9 1015.0 0.0
01/02:30pm 9.2 5.7 1.4 58 3.3 S 9 13 5 7 1013.9 - 0.0
01/02:00pm 9.4 5.1 1.3 57 3.4 S 13 19 7 10 1013.8 - 0.0
01/01:30pm 9.2 4.2 1.4 58 3.3 S 17 22 9 12 1013.7 - 0.0
01/01:00pm 8.9 4.7 1.6 60 3.1 S 13 20 7 11 1013.9 - 0.0
01/12:30pm 9.2 5.6 2.8 64 2.8 S 11 19 6 10 1013.8 - 0.0
01/12:00pm 8.9 4.2 2.9 66 2.6 S 17 22 9 12 1014.0 1015.1 0.0
01/11:30am 9.0 5.4 4.8 75 1.9 S 13 17 7 9 1013.9 - 0.0
01/11:00am 8.7 5.5 5.1 78 1.6 S 11 19 6 10 1013.9 - 0.0
01/10:30am 8.6 6.0 5.9 83 1.2 SSW 9 13 5 7 1014.1 - 0.0
01/10:00am 8.4 5.9 6.5 88 0.9 S 9 15 5 8 1013.8 - 0.0
01/09:30am 8.0 4.7 6.6 91 0.7 S 13 20 7 11 1013.3 - 0.0
01/09:00am 8.0 4.8 6.9 93 0.5 SSE 13 19 7 10 1012.8 1014.0 1.0
01/08:30am 8.1 5.3 7.0 93 0.5 S 11 19 6 10 1011.7 - 1.0
01/08:00am 8.1 5.2 8.0 99 0.0 SSE 13 19 7 10 1011.4 - 1.0
01/07:30am 8.3 6.7 8.2 99 0.0 NE 6 9 3 5 1010.4 - 1.0
01/07:00am 8.4 6.7 8.3 99 0.0 NW 7 11 4 6 1009.6 - 1.0
01/06:30am 8.4 6.7 8.3 99 0.0 WNW 7 13 4 7 1009.3 - 1.0
01/06:00am 8.3 5.4 8.2 99 0.0 NW 13 17 7 9 1008.9 1010.0 0.8
01/05:30am 7.8 5.6 7.7 99 0.0 NW 9 13 5 7 1008.5 - 0.8
01/05:00am 7.6 4.9 7.2 97 0.2 NNW 11 15 6 8 1008.2 - 0.6
01/04:30am 7.9 4.6 6.5 91 0.7 NNW 13 19 7 10 1008.3 - 0.2
01/04:00am 8.7 4.8 5.4 80 1.5 NNW 15 19 8 10 1008.4 - 0.0
01/03:30am 8.7 4.0 5.1 78 1.6 NNW 19 30 10 16 1008.7 - 0.0
01/03:00am 8.4 4.4 4.8 78 1.6 N 15 28 8 15 1009.2 1010.3 0.0
01/02:30am 8.4 4.3 4.6 77 1.7 NNW 15 22 8 12 1009.5 - 0.0
01/02:00am 8.3 3.8 4.3 76 1.8 N 17 24 9 13 1009.8 - 0.0
01/01:30am 7.7 2.7 3.7 76 1.7 N 19 26 10 14 1010.2 - 0.0
01/01:00am 7.6 3.7 3.3 74 1.9 N 13 20 7 11 1010.8 - 0.0
01/12:30am 7.8 2.5 3.1 72 2.0 N 20 28 11 15 1011.3 - 0.0
01/12:00am 8.0 2.9 2.9 70 2.2 N 19 32 10 17 1011.7 1012.9 0.0
 
Date/Time
EST
Temp
°C
App
Temp
°C
Dew
Point
Rel
Hum
%
Delta-T
°C
Wind Press
QNH
hPa
Press
MSL
hPa
Rain
since 9 am
mm
Dir
 
Spd
km/h
Gust
km/h
Spd
kts
Gust
kts
31/11:30pm 7.8 3.0 2.5 69 2.2 N 17 24 9 13 1012.1 - 0.0
31/11:00pm 7.9 3.4 2.4 68 2.3 N 15 20 8 11 1013.1 - 0.0
31/10:30pm 7.8 3.4 2.5 69 2.2 N 15 24 8 13 1013.1 - 0.0
31/10:00pm 8.0 4.3 2.5 68 2.3 NNW 11 17 6 9 1014.1 - 0.0
31/09:30pm 8.0 3.9 2.3 67 2.4 N 13 20 7 11 1013.6 - 0.0
31/09:00pm 7.9 3.8 2.2 67 2.4 N 13 20 7 11 1014.0 1015.2 0.0
31/08:30pm 7.8 3.0 2.5 69 2.2 N 17 24 9 13 1014.2 - 0.0
31/08:00pm 7.8 3.4 2.7 70 2.2 N 15 24 8 13 1014.6 - 0.0
31/07:30pm 8.0 2.6 2.5 68 2.3 N 20 30 11 16 1015.5 - 0.0
31/07:00pm 7.7 2.8 2.0 67 2.4 N 17 22 9 12 1015.3 - 0.0
31/06:30pm 7.7 3.1 1.8 66 2.5 NNW 15 20 8 11 1015.4 - 0.0
31/06:00pm 8.1 3.2 1.7 64 2.7 NNW 17 26 9 14 1015.5 1016.8 0.0
31/05:30pm 8.6 3.0 1.3 60 3.0 NNW 20 28 11 15 1015.2 - 0.0
31/05:00pm 9.2 3.3 1.4 58 3.3 N 22 30 12 16 1014.9 - 0.0
31/04:30pm 9.6 3.7 1.5 57 3.4 NNW 22 33 12 18 1014.9 - 0.0
31/04:00pm 9.7 4.1 0.9 54 3.7 NNW 20 35 11 19 1015.3 - 0.0
31/03:30pm 9.8 3.9 1.5 56 3.5 N 22 30 12 16 1015.5 - 0.0
31/03:00pm 9.9 4.0 1.5 56 3.5 NNW 22 32 12 17 1015.9 1017.2 0.0
31/02:30pm 9.5 3.6 1.9 59 3.2 NNW 22 33 12 18 1016.2 - 0.0
31/02:00pm 9.4 3.1 1.3 57 3.4 N 24 32 13 17 1016.8 - 0.0
31/01:30pm 9.2 3.4 2.1 61 3.0 NW 22 28 12 15 1017.5 - 0.0
31/01:00pm 9.2 3.9 1.9 60 3.1 NW 19 26 10 14 1018.1 - 0.0
31/12:30pm 8.8 3.6 2.2 63 2.8 NW 19 26 10 14 1018.7 - 0.0
31/12:00pm 8.5 3.5 1.2 60 3.0 NW 17 24 9 13 1019.2 1020.5 0.0
31/11:30am 8.2 3.3 2.0 65 2.6 NW 17 22 9 12 1019.8 - 0.0
31/11:00am 8.0 4.2 1.8 65 2.6 NW 11 19 6 10 1020.3 - 0.0
31/10:30am 7.8 5.2 4.4 79 1.5 N 7 11 4 6 1020.4 - 0.0
31/10:00am 7.0 5.8 4.8 86 1.0 CALM 0 6 0 3 1020.6 - 0.0
31/09:30am 5.1 3.5 4.7 97 0.2 ENE 2 7 1 4 1020.7 - 0.0
31/09:00am 3.0 0.3 2.9 99 0.0 E 6 7 3 4 1020.8 1022.1 1.4
31/08:30am 1.0 -2.0 0.9 99 0.0 ENE 6 6 3 3 1020.8 - 1.2
31/08:00am -0.4 -3.2 -0.5 99 0.0 ESE 4 7 2 4 1020.5 - 1.2
31/07:30am -0.7 -3.9 -0.8 99 0.0 E 6 6 3 3 1019.9 - 1.2
31/07:00am -0.3 -3.7 -0.4 99 0.0 ESE 7 9 4 5 1019.7 - 1.2
31/06:30am -0.2 -3.6 -0.3 99 0.0 E 7 11 4 6 1019.2 - 1.2
31/06:00am -0.3 -3.1 -0.4 99 0.0 ESE 4 7 2 4 1019.2 1020.5 1.2
31/05:30am -0.2 -2.6 -0.3 99 0.0 ESE 2 7 1 4 1019.2 - 1.2
31/05:00am -0.4 -3.2 -0.5 99 0.0 N 4 6 2 3 1019.2 - 1.2
31/04:30am 0.0 -2.0 -0.1 99 0.0 CALM 0 0 0 0 1019.0 - 1.2
31/04:00am -0.1 -3.3 -0.4 98 0.1 WSW 6 7 3 4 1018.9 - 1.2
31/03:30am 0.8 -1.1 0.7 99 0.0 CALM 0 0 0 0 1018.7 - 1.2
31/03:00am 1.6 -1.3 1.3 98 0.1 WSW 6 6 3 3 1018.9 1020.2 1.2
31/02:30am 1.9 -0.2 1.6 98 0.1 SSW 2 6 1 3 1019.2 - 1.2
31/02:00am 2.8 1.2 2.5 98 0.1 CALM 0 0 0 0 1019.0 - 1.2
31/01:30am 2.2 0.1 1.6 96 0.2 S 2 6 1 3 1018.9 - 1.2
31/01:00am 2.9 0.1 2.0 94 0.4 SSE 6 7 3 4 1018.9 - 1.2
31/12:30am 3.4 1.8 2.2 92 0.5 CALM 0 0 0 0 1018.7 - 1.2
31/12:00am 4.3 1.5 2.2 86 0.8 S 6 9 3 5 1018.3 1019.5 1.2
 
Date/Time
EST
Temp
°C
App
Temp
°C
Dew
Point
Rel
Hum
%
Delta-T
°C
Wind Press
QNH
hPa
Press
MSL
hPa
Rain
since 9 am
mm
Dir
 
Spd
km/h
Gust
km/h
Spd
kts
Gust
kts
30/11:30pm 4.3 1.1 3.1 92 0.5 SW 9 11 5 6 1018.2 - 1.2
30/11:00pm 6.2 4.0 3.5 83 1.2 S 4 9 2 5 1017.9 - 1.2

Other Formats:

Comma delimited format used in spreadsheet applications
http://www.bom.gov.au/fwo/IDV60801/IDV60801.94836.axf

JavaScript Object Notation format (JSON) in row-major order
http://www.bom.gov.au/fwo/IDV60801/IDV60801.94836.json